createdAt,value
2022-10-15T00:00:09.131Z,658
2022-10-15T00:01:00.919Z,657
2022-10-15T00:01:52.669Z,632
2022-10-15T00:02:44.343Z,588
2022-10-15T00:03:36.047Z,493
2022-10-15T00:04:27.803Z,635
2022-10-15T00:05:19.479Z,619
2022-10-15T00:06:11.273Z,524
2022-10-15T00:07:02.976Z,581
2022-10-15T00:07:54.738Z,545
2022-10-15T00:08:46.448Z,526
2022-10-15T00:09:38.208Z,544
2022-10-15T00:10:29.937Z,542
2022-10-15T00:11:21.679Z,481
2022-10-15T00:12:13.424Z,429
2022-10-15T00:13:05.161Z,431
2022-10-15T00:13:56.887Z,453
2022-10-15T00:14:48.644Z,395
2022-10-15T00:15:40.359Z,356
2022-10-15T00:16:32.131Z,351
2022-10-15T00:17:24.375Z,355
2022-10-15T00:18:15.611Z,351
2022-10-15T00:19:07.312Z,342
2022-10-15T00:19:59.068Z,365
2022-10-15T00:20:50.800Z,322
2022-10-15T00:21:42.539Z,341
2022-10-15T00:22:34.270Z,328
2022-10-15T00:23:26.000Z,344
2022-10-15T00:24:17.728Z,317
2022-10-15T00:25:09.387Z,302
2022-10-15T00:26:01.090Z,296
2022-10-15T00:26:52.912Z,295
2022-10-15T00:27:44.621Z,315
2022-10-15T00:28:36.399Z,360
2022-10-15T00:29:28.065Z,381
2022-10-15T00:30:19.765Z,386
2022-10-15T00:31:11.517Z,374
2022-10-15T00:32:03.262Z,435
2022-10-15T00:32:54.964Z,445
2022-10-15T00:33:46.730Z,447
2022-10-15T00:34:38.411Z,448
2022-10-15T00:35:30.154Z,420
2022-10-15T00:36:21.863Z,385
2022-10-15T00:37:13.608Z,445
2022-10-15T00:38:05.341Z,451
2022-10-15T00:38:57.060Z,505
2022-10-15T00:39:48.874Z,511
2022-10-15T00:40:40.541Z,485
2022-10-15T00:41:32.270Z,530
2022-10-15T00:42:24.324Z,543
2022-10-15T00:43:15.718Z,531
2022-10-15T00:44:07.478Z,567
2022-10-15T00:44:59.189Z,619
2022-10-15T00:45:50.948Z,604
2022-10-15T00:46:42.656Z,1156
2022-10-15T00:47:34.424Z,8294
2022-10-15T00:48:26.143Z,2460
2022-10-15T00:49:17.908Z,2670
2022-10-15T00:50:09.558Z,2865
2022-10-15T00:51:01.409Z,6159
2022-10-15T00:51:53.135Z,3163
2022-10-15T00:52:44.897Z,3333
2022-10-15T00:53:36.643Z,3355
2022-10-15T00:54:28.411Z,3270
2022-10-15T00:55:20.158Z,3081
2022-10-15T00:56:11.905Z,2474
2022-10-15T00:57:03.644Z,2394
2022-10-15T00:57:55.422Z,2224
2022-10-15T00:58:47.174Z,2196
2022-10-15T00:59:38.936Z,2388
2022-10-15T01:00:30.684Z,2372
2022-10-15T01:01:22.516Z,2426
2022-10-15T01:02:14.212Z,2341
2022-10-15T01:03:05.954Z,2208
2022-10-15T01:03:57.719Z,2756
2022-10-15T01:04:49.457Z,3002
2022-10-15T01:05:41.221Z,3290
2022-10-15T01:06:33.004Z,3298
2022-10-15T01:07:24.734Z,3290
2022-10-15T01:08:16.520Z,3149
2022-10-15T01:09:08.258Z,3444
2022-10-15T01:09:59.991Z,3315
2022-10-15T01:10:51.785Z,3254
2022-10-15T01:11:43.578Z,3369
2022-10-15T01:12:35.303Z,3353
2022-10-15T01:13:27.101Z,3413
2022-10-15T01:14:18.859Z,3355
2022-10-15T01:15:10.615Z,3781
2022-10-15T01:16:02.450Z,3423
2022-10-15T01:16:54.149Z,3375
2022-10-15T01:17:45.922Z,3611
2022-10-15T01:18:37.692Z,3502
2022-10-15T01:19:29.359Z,3478
2022-10-15T01:20:21.216Z,3498
2022-10-15T01:21:12.979Z,3635
2022-10-15T01:22:04.753Z,3425
2022-10-15T01:22:56.538Z,3514
2022-10-15T01:23:48.307Z,3595
2022-10-15T01:24:40.036Z,3773
2022-10-15T01:25:31.830Z,4072
2022-10-15T01:26:23.603Z,3902
2022-10-15T01:27:15.376Z,3830
2022-10-15T01:28:07.129Z,3708
2022-10-15T01:28:58.971Z,4460
2022-10-15T01:29:50.667Z,3838
2022-10-15T01:30:42.456Z,4056
2022-10-15T01:31:34.206Z,3935
2022-10-15T01:32:26.001Z,3927
2022-10-15T01:33:17.763Z,3765
2022-10-15T01:34:09.500Z,3838
2022-10-15T01:35:01.302Z,3757
2022-10-15T01:35:53.068Z,3716
2022-10-15T01:36:44.837Z,4266
2022-10-15T01:37:36.623Z,4088
2022-10-15T01:38:28.373Z,3571
2022-10-15T01:39:20.172Z,6733
2022-10-15T01:40:11.923Z,7720
2022-10-15T01:41:03.695Z,7308
2022-10-15T01:41:55.463Z,5738
2022-10-15T01:42:47.257Z,4177
2022-10-15T01:43:39.007Z,3351
2022-10-15T01:44:30.812Z,3149
2022-10-15T01:45:22.548Z,3030
2022-10-15T01:46:14.335Z,2835
2022-10-15T01:47:06.101Z,2795
2022-10-15T01:47:57.904Z,2775
2022-10-15T01:48:49.540Z,2627
2022-10-15T01:49:41.410Z,2617
2022-10-15T01:50:33.165Z,2555
2022-10-15T01:51:24.946Z,2426
2022-10-15T01:52:16.798Z,2519
2022-10-15T01:53:08.487Z,2551
2022-10-15T01:54:00.259Z,2535
2022-10-15T01:54:52.029Z,2462
2022-10-15T01:55:43.775Z,2513
2022-10-15T01:56:35.550Z,2325
2022-10-15T01:57:27.314Z,2341
2022-10-15T01:58:19.085Z,2279
2022-10-15T01:59:10.835Z,2190
2022-10-15T02:00:02.572Z,2257
2022-10-15T02:00:54.423Z,2146
2022-10-15T02:01:46.150Z,2116
2022-10-15T02:02:37.898Z,2136
2022-10-15T02:03:29.615Z,2083
2022-10-15T02:04:21.434Z,2170
2022-10-15T02:05:13.218Z,2235
2022-10-15T02:06:04.980Z,2136
2022-10-15T02:06:56.747Z,2106
2022-10-15T02:07:48.509Z,2132
2022-10-15T02:08:40.188Z,2150
2022-10-15T02:09:32.049Z,2154
2022-10-15T02:10:23.801Z,2194
2022-10-15T02:11:15.567Z,2126
2022-10-15T02:12:07.339Z,2047
2022-10-15T02:12:59.095Z,2049
2022-10-15T02:13:50.865Z,1898
2022-10-15T02:14:42.620Z,1900
2022-10-15T02:15:34.406Z,1880
2022-10-15T02:16:26.162Z,1904
2022-10-15T02:17:17.935Z,1908
2022-10-15T02:18:09.697Z,1979
2022-10-15T02:19:01.462Z,1975
2022-10-15T02:19:53.287Z,1936
2022-10-15T02:20:44.992Z,1864
2022-10-15T02:21:36.743Z,1856
2022-10-15T02:22:28.508Z,1827
2022-10-15T02:23:20.287Z,1811
2022-10-15T02:24:12.052Z,1809
2022-10-15T02:25:03.812Z,1745
2022-10-15T02:25:55.580Z,1765
2022-10-15T02:26:47.325Z,1688
2022-10-15T02:27:39.123Z,1731
2022-10-15T02:28:30.914Z,1753
2022-10-15T02:29:22.648Z,1801
2022-10-15T02:30:14.392Z,1751
2022-10-15T02:31:06.162Z,1777
2022-10-15T02:31:57.917Z,1811
2022-10-15T02:32:49.618Z,1813
2022-10-15T02:33:41.441Z,1743
2022-10-15T02:34:33.224Z,1662
2022-10-15T02:35:24.991Z,1690
2022-10-15T02:36:16.737Z,1642
2022-10-15T02:37:08.498Z,1495
2022-10-15T02:38:00.260Z,1521
2022-10-15T02:38:52.023Z,1511
2022-10-15T02:39:43.811Z,1527
2022-10-15T02:40:35.554Z,1570
2022-10-15T02:41:27.333Z,1632
2022-10-15T02:42:19.075Z,1594
2022-10-15T02:43:10.857Z,1555
2022-10-15T02:44:02.605Z,1533
2022-10-15T02:44:54.383Z,1535
2022-10-15T02:45:46.140Z,1521
2022-10-15T02:46:37.906Z,1638
2022-10-15T02:47:29.588Z,1584
2022-10-15T02:48:21.444Z,1511
2022-10-15T02:49:13.215Z,1517
2022-10-15T02:50:04.979Z,1487
2022-10-15T02:50:56.732Z,1507
2022-10-15T02:51:48.505Z,1507
2022-10-15T02:52:40.218Z,1572
2022-10-15T02:53:32.025Z,1541
2022-10-15T02:54:23.781Z,1561
2022-10-15T02:55:15.556Z,1531
2022-10-15T02:56:07.327Z,1574
2022-10-15T02:56:59.094Z,1612
2022-10-15T02:57:50.875Z,1598
2022-10-15T02:58:42.629Z,1578
2022-10-15T02:59:34.380Z,1505
2022-10-15T03:00:26.143Z,1511
2022-10-15T03:01:17.911Z,1580
2022-10-15T03:02:09.662Z,1592
2022-10-15T03:03:01.445Z,1612
2022-10-15T03:03:53.196Z,1586
2022-10-15T03:04:44.952Z,1614
2022-10-15T03:05:36.726Z,1491
2022-10-15T03:06:28.478Z,1521
2022-10-15T03:07:20.256Z,1418
2022-10-15T03:08:12.007Z,1513
2022-10-15T03:09:03.775Z,1499
2022-10-15T03:09:55.520Z,1465
2022-10-15T03:10:47.294Z,1348
2022-10-15T03:11:39.055Z,1428
2022-10-15T03:12:30.819Z,1551
2022-10-15T03:13:22.577Z,1489
2022-10-15T03:14:14.373Z,1471
2022-10-15T03:15:06.116Z,1380
2022-10-15T03:15:57.872Z,1372
2022-10-15T03:16:49.523Z,1318
2022-10-15T03:17:41.400Z,1287
2022-10-15T03:18:36.747Z,1350
2022-10-15T03:19:24.925Z,1445
2022-10-15T03:20:16.680Z,1580
2022-10-15T03:21:08.455Z,1584
2022-10-15T03:22:00.157Z,1551
2022-10-15T03:22:51.978Z,1477
2022-10-15T03:23:43.729Z,1481
2022-10-15T03:24:35.504Z,1505
2022-10-15T03:25:27.253Z,1533
2022-10-15T03:26:19.030Z,1481
2022-10-15T03:27:10.779Z,1463
2022-10-15T03:28:02.561Z,1505
2022-10-15T03:28:54.354Z,1527
2022-10-15T03:29:46.271Z,1545
2022-10-15T03:30:37.831Z,1418
2022-10-15T03:31:29.534Z,1432
2022-10-15T03:32:21.496Z,1376
2022-10-15T03:33:13.143Z,1392
2022-10-15T03:34:04.880Z,1368
2022-10-15T03:34:56.661Z,1455
2022-10-15T03:35:48.399Z,1489
2022-10-15T03:36:40.123Z,1426
2022-10-15T03:37:31.947Z,1481
2022-10-15T03:38:23.705Z,1459
2022-10-15T03:39:15.466Z,1439
2022-10-15T03:40:11.859Z,1477
2022-10-15T03:40:58.992Z,1418
2022-10-15T03:41:50.766Z,1370
2022-10-15T03:42:42.512Z,1332
2022-10-15T03:43:37.414Z,1342
2022-10-15T03:44:26.046Z,1221
2022-10-15T03:45:17.818Z,1225
2022-10-15T03:46:09.522Z,1205
2022-10-15T03:47:01.352Z,1300
2022-10-15T03:47:53.089Z,1275
2022-10-15T03:48:44.881Z,1342
2022-10-15T03:49:36.611Z,1388
2022-10-15T03:50:28.389Z,1420
2022-10-15T03:51:23.599Z,1320
2022-10-15T03:52:11.915Z,1324
2022-10-15T03:53:03.682Z,1239
2022-10-15T03:53:55.438Z,1251
2022-10-15T03:54:47.218Z,1199
2022-10-15T03:55:38.971Z,1237
2022-10-15T03:56:30.719Z,1249
2022-10-15T03:57:22.493Z,1221
2022-10-15T03:58:14.250Z,1152
2022-10-15T03:59:06.029Z,1183
2022-10-15T03:59:57.794Z,1169
2022-10-15T04:00:49.560Z,1130
2022-10-15T04:01:41.324Z,1140
2022-10-15T04:02:33.104Z,1025
2022-10-15T04:03:24.836Z,1011
2022-10-15T04:04:16.629Z,1048
2022-10-15T04:05:08.383Z,1042
2022-10-15T04:06:01.309Z,1036
2022-10-15T04:06:51.909Z,961
2022-10-15T04:07:43.668Z,1001
2022-10-15T04:08:35.415Z,1023
2022-10-15T04:09:27.204Z,1019
2022-10-15T04:10:18.945Z,1003
2022-10-15T04:11:10.733Z,943
2022-10-15T04:12:02.471Z,1054
2022-10-15T04:12:54.254Z,1017
2022-10-15T04:13:46.005Z,949
2022-10-15T04:14:37.783Z,1088
2022-10-15T04:15:29.544Z,1003
2022-10-15T04:16:21.309Z,1029
2022-10-15T04:17:13.078Z,1019
2022-10-15T04:18:04.848Z,961
2022-10-15T04:18:56.594Z,935
2022-10-15T04:19:48.384Z,895
2022-10-15T04:20:40.191Z,834
2022-10-15T04:21:31.897Z,933
2022-10-15T04:22:23.942Z,822
2022-10-15T04:23:15.429Z,864
2022-10-15T04:24:07.166Z,782
2022-10-15T04:24:58.942Z,802
2022-10-15T04:25:50.692Z,792
2022-10-15T04:26:42.478Z,759
2022-10-15T04:27:34.222Z,820
2022-10-15T04:28:26.063Z,800
2022-10-15T04:29:17.747Z,709
2022-10-15T04:30:09.518Z,719
2022-10-15T04:31:01.206Z,741
2022-10-15T04:31:53.067Z,745
2022-10-15T04:32:44.791Z,741
2022-10-15T04:33:36.578Z,814
2022-10-15T04:34:28.310Z,755
2022-10-15T04:35:20.031Z,782
2022-10-15T04:36:11.886Z,768
2022-10-15T04:37:03.616Z,796
2022-10-15T04:37:55.374Z,729
2022-10-15T04:38:47.144Z,696
2022-10-15T04:39:38.895Z,688
2022-10-15T04:40:30.676Z,709
2022-10-15T04:41:22.419Z,698
2022-10-15T04:42:14.183Z,784
2022-10-15T04:43:05.934Z,737
2022-10-15T04:43:57.714Z,711
2022-10-15T04:44:49.468Z,698
2022-10-15T04:45:41.240Z,676
2022-10-15T04:46:32.978Z,679
2022-10-15T04:47:25.216Z,677
2022-10-15T04:48:16.492Z,677
2022-10-15T04:49:08.289Z,665
2022-10-15T04:50:00.032Z,689
2022-10-15T04:50:51.800Z,677
2022-10-15T04:51:43.555Z,680
2022-10-15T04:52:35.335Z,670
2022-10-15T04:53:27.063Z,661
2022-10-15T04:54:18.853Z,676
2022-10-15T04:55:10.597Z,660
2022-10-15T04:56:02.362Z,670
2022-10-15T04:56:54.119Z,656
2022-10-15T04:57:45.869Z,658
2022-10-15T04:58:37.623Z,652
2022-10-15T04:59:29.393Z,649
2022-10-15T05:00:21.141Z,658
2022-10-15T05:01:12.932Z,663
2022-10-15T05:02:04.805Z,659
2022-10-15T05:02:56.435Z,661
2022-10-15T05:03:48.185Z,663
2022-10-15T05:04:39.882Z,671
2022-10-15T05:05:31.729Z,673
2022-10-15T05:06:23.492Z,677
2022-10-15T05:07:15.226Z,671
2022-10-15T05:08:07.006Z,674
2022-10-15T05:08:58.748Z,672
2022-10-15T05:09:50.434Z,672
2022-10-15T05:10:42.290Z,661
2022-10-15T05:11:34.046Z,653
2022-10-15T05:12:25.806Z,648
2022-10-15T05:13:17.572Z,661
2022-10-15T05:14:09.309Z,646
2022-10-15T05:15:00.977Z,652
2022-10-15T05:15:52.842Z,648
2022-10-15T05:16:44.618Z,646
2022-10-15T05:17:36.362Z,689
2022-10-15T05:18:28.121Z,674
2022-10-15T05:19:19.798Z,696
2022-10-15T05:20:11.656Z,676
2022-10-15T05:21:03.395Z,673
2022-10-15T05:21:55.178Z,683
2022-10-15T05:22:46.942Z,675
2022-10-15T05:23:38.696Z,687
2022-10-15T05:24:30.357Z,678
2022-10-15T05:25:22.200Z,679
2022-10-15T05:26:13.967Z,658
2022-10-15T05:27:05.720Z,664
2022-10-15T05:27:57.490Z,683
2022-10-15T05:28:49.299Z,691
2022-10-15T05:29:40.992Z,692
2022-10-15T05:30:32.757Z,684
2022-10-15T05:31:24.516Z,696
2022-10-15T05:32:16.347Z,695
2022-10-15T05:33:08.037Z,681
2022-10-15T05:33:59.737Z,695
2022-10-15T05:34:51.545Z,686
2022-10-15T05:35:43.335Z,675
2022-10-15T05:36:35.061Z,662
2022-10-15T05:37:26.839Z,653
2022-10-15T05:38:18.575Z,664
2022-10-15T05:39:10.378Z,662
2022-10-15T05:40:02.061Z,658
2022-10-15T05:40:53.882Z,659
2022-10-15T05:41:45.623Z,649
2022-10-15T05:42:37.398Z,655
2022-10-15T05:43:29.139Z,667
2022-10-15T05:44:20.893Z,682
2022-10-15T05:45:12.650Z,682
2022-10-15T05:46:04.436Z,660
2022-10-15T05:46:56.179Z,660
2022-10-15T05:47:47.939Z,644
2022-10-15T05:48:39.685Z,658
2022-10-15T05:49:31.461Z,660
2022-10-15T05:50:23.207Z,647
2022-10-15T05:51:15.004Z,646
2022-10-15T05:52:06.735Z,641
2022-10-15T05:52:58.502Z,621
2022-10-15T05:53:50.173Z,633
2022-10-15T05:54:42.025Z,634
2022-10-15T05:55:33.784Z,636
2022-10-15T05:56:25.534Z,639
2022-10-15T05:57:17.282Z,626
2022-10-15T05:58:09.059Z,636
2022-10-15T05:59:00.818Z,631
2022-10-15T05:59:52.567Z,627
2022-10-15T06:00:44.315Z,627
2022-10-15T06:01:36.176Z,640
2022-10-15T06:02:28.423Z,621
2022-10-15T06:03:19.611Z,654
2022-10-15T06:04:11.340Z,638
2022-10-15T06:05:03.057Z,632
2022-10-15T06:05:54.865Z,629
2022-10-15T06:06:46.636Z,628
2022-10-15T06:07:38.378Z,635
2022-10-15T06:08:30.099Z,629
2022-10-15T06:09:21.911Z,624
2022-10-15T06:10:13.677Z,641
2022-10-15T06:11:08.622Z,649
2022-10-15T06:11:57.206Z,631
2022-10-15T06:12:48.975Z,655
2022-10-15T06:13:40.638Z,640
2022-10-15T06:14:32.462Z,635
2022-10-15T06:15:24.255Z,625
2022-10-15T06:16:19.325Z,630
2022-10-15T06:17:07.764Z,636
2022-10-15T06:17:59.498Z,641
2022-10-15T06:18:51.279Z,673
2022-10-15T06:19:42.998Z,659
2022-10-15T06:20:34.788Z,651
2022-10-15T06:21:26.539Z,657
2022-10-15T06:22:18.309Z,650
2022-10-15T06:23:10.052Z,661
2022-10-15T06:24:03.177Z,673
2022-10-15T06:24:53.573Z,656
2022-10-15T06:25:45.362Z,670
2022-10-15T06:26:37.094Z,664
2022-10-15T06:27:28.870Z,672
2022-10-15T06:28:20.574Z,669
2022-10-15T06:29:12.405Z,688
2022-10-15T06:30:04.069Z,691
2022-10-15T06:30:55.916Z,674
2022-10-15T06:31:47.655Z,660
2022-10-15T06:32:39.423Z,683
2022-10-15T06:33:31.195Z,679
2022-10-15T06:34:22.941Z,685
2022-10-15T06:35:14.695Z,685
2022-10-15T06:36:06.459Z,676
2022-10-15T06:36:58.205Z,674
2022-10-15T06:37:49.896Z,682
2022-10-15T06:38:41.740Z,678
2022-10-15T06:39:33.510Z,685
2022-10-15T06:40:25.251Z,668
2022-10-15T06:41:17.044Z,685
2022-10-15T06:42:08.781Z,675
2022-10-15T06:43:00.516Z,680
2022-10-15T06:44:44.063Z,690
2022-10-15T06:45:35.820Z,677
2022-10-15T06:46:27.587Z,680
2022-10-15T06:47:19.346Z,679
2022-10-15T06:48:11.108Z,658
2022-10-15T06:49:02.901Z,652
2022-10-15T06:49:54.658Z,639
2022-10-15T06:50:46.396Z,623
2022-10-15T06:51:38.165Z,641
2022-10-15T06:52:29.860Z,629
2022-10-15T06:53:21.699Z,635
2022-10-15T06:54:13.440Z,648
2022-10-15T06:55:05.242Z,637
2022-10-15T06:55:56.954Z,632
2022-10-15T06:56:48.741Z,638
2022-10-15T06:57:40.407Z,644
2022-10-15T06:58:32.280Z,661
2022-10-15T06:59:24.009Z,655
2022-10-15T07:00:15.838Z,667
2022-10-15T07:01:07.540Z,671
2022-10-15T07:01:59.323Z,677
2022-10-15T07:02:51.048Z,660
2022-10-15T07:03:42.838Z,664
2022-10-15T07:04:34.576Z,675
2022-10-15T07:05:26.363Z,674
2022-10-15T07:06:18.111Z,676
2022-10-15T07:07:09.861Z,670
2022-10-15T07:08:01.634Z,672
2022-10-15T07:08:53.402Z,667
2022-10-15T07:09:45.154Z,660
2022-10-15T07:10:36.928Z,674
2022-10-15T07:11:28.692Z,657
2022-10-15T07:12:20.390Z,655
2022-10-15T07:13:12.197Z,662
2022-10-15T07:14:03.969Z,669
2022-10-15T07:14:55.715Z,669
2022-10-15T07:15:47.510Z,675
2022-10-15T07:16:39.243Z,667
2022-10-15T07:17:31.019Z,669
2022-10-15T07:18:22.758Z,707
2022-10-15T07:19:14.542Z,854
2022-10-15T07:20:06.239Z,1034
2022-10-15T07:20:58.140Z,1167
2022-10-15T07:21:49.794Z,1445
2022-10-15T07:22:41.581Z,2424
2022-10-15T07:23:33.329Z,2728
2022-10-15T07:24:25.105Z,2353
2022-10-15T07:25:16.877Z,1967
2022-10-15T07:26:08.635Z,1662
2022-10-15T07:27:05.108Z,1559
2022-10-15T07:27:52.170Z,1439
2022-10-15T07:28:44.046Z,1350
2022-10-15T07:29:35.697Z,1406
2022-10-15T07:30:27.444Z,1428
2022-10-15T07:31:19.222Z,1430
2022-10-15T07:32:10.970Z,1471
2022-10-15T07:33:02.742Z,1709
2022-10-15T07:33:54.509Z,1769
2022-10-15T07:34:46.288Z,1874
2022-10-15T07:35:38.035Z,1904
2022-10-15T07:36:29.800Z,1979
2022-10-15T07:37:21.562Z,2122
2022-10-15T07:38:13.345Z,2085
2022-10-15T07:39:05.100Z,2118
2022-10-15T07:39:56.897Z,2134
2022-10-15T07:40:48.633Z,2182
2022-10-15T07:41:40.332Z,2226
2022-10-15T07:42:32.176Z,2176
2022-10-15T07:43:23.963Z,2232
2022-10-15T07:44:15.713Z,2287
2022-10-15T07:45:07.509Z,2218
2022-10-15T07:45:59.254Z,2271
2022-10-15T07:46:51.045Z,2271
2022-10-15T07:47:42.802Z,2321
2022-10-15T07:48:34.573Z,2335
2022-10-15T07:49:26.344Z,2361
2022-10-15T07:50:18.120Z,2305
2022-10-15T07:51:09.914Z,2355
2022-10-15T07:52:01.632Z,2351
2022-10-15T07:52:53.423Z,2188
2022-10-15T07:53:45.223Z,1823
2022-10-15T07:54:36.969Z,1632
2022-10-15T07:55:28.764Z,1644
2022-10-15T07:56:20.569Z,1473
2022-10-15T07:57:12.303Z,1390
2022-10-15T07:58:04.056Z,1207
2022-10-15T07:58:55.840Z,1044
2022-10-15T07:59:47.594Z,1074
2022-10-15T08:00:39.381Z,957
2022-10-15T08:01:31.140Z,935
2022-10-15T08:02:23.155Z,650
2022-10-15T08:03:14.671Z,620
2022-10-15T08:04:06.457Z,639
2022-10-15T08:04:58.205Z,620
2022-10-15T08:05:49.954Z,600
2022-10-15T08:06:41.740Z,602
2022-10-15T08:07:33.513Z,582
2022-10-15T08:08:25.269Z,570
2022-10-15T08:09:17.034Z,630
2022-10-15T08:10:08.787Z,591
2022-10-15T08:11:00.446Z,547
2022-10-15T08:11:52.305Z,502
2022-10-15T08:12:44.062Z,488
2022-10-15T08:13:35.799Z,494
2022-10-15T08:14:27.546Z,494
2022-10-15T08:15:19.310Z,490
2022-10-15T08:16:11.071Z,493
2022-10-15T08:17:02.785Z,469
2022-10-15T08:17:54.560Z,478
2022-10-15T08:18:46.348Z,498
2022-10-15T08:19:38.065Z,498
2022-10-15T08:20:29.788Z,509
2022-10-15T08:21:21.547Z,522
2022-10-15T08:22:13.301Z,501
2022-10-15T08:23:05.060Z,465
2022-10-15T08:23:56.821Z,460
2022-10-15T08:24:48.552Z,464
2022-10-15T08:25:40.198Z,520
2022-10-15T08:26:32.044Z,533
2022-10-15T08:27:23.780Z,491
2022-10-15T08:28:15.536Z,440
2022-10-15T08:29:07.335Z,425
2022-10-15T08:29:59.026Z,382
2022-10-15T08:30:50.700Z,403
2022-10-15T08:31:42.497Z,421
2022-10-15T08:32:34.222Z,420
2022-10-15T08:33:25.989Z,421
2022-10-15T08:34:17.722Z,420
2022-10-15T08:35:09.467Z,396
2022-10-15T08:36:01.170Z,390
2022-10-15T08:36:52.941Z,391
2022-10-15T08:37:44.661Z,379
2022-10-15T08:38:36.423Z,386
2022-10-15T08:39:28.228Z,403
2022-10-15T08:40:19.940Z,383
2022-10-15T08:41:11.631Z,425
2022-10-15T08:42:03.380Z,430
2022-10-15T08:42:55.102Z,369
2022-10-15T08:43:46.871Z,374
2022-10-15T08:44:38.588Z,401
2022-10-15T08:45:30.337Z,367
2022-10-15T08:46:22.067Z,347
2022-10-15T08:47:13.815Z,339
2022-10-15T08:48:05.535Z,447
2022-10-15T08:48:57.285Z,493
2022-10-15T08:49:49.015Z,600
2022-10-15T08:50:40.706Z,581
2022-10-15T08:51:32.482Z,540
2022-10-15T08:52:24.221Z,526
2022-10-15T08:53:15.961Z,484
2022-10-15T08:54:07.701Z,485
2022-10-15T08:54:59.433Z,457
2022-10-15T08:55:51.190Z,437
2022-10-15T08:56:42.920Z,417
2022-10-15T08:57:34.677Z,423
2022-10-15T08:58:26.416Z,408
2022-10-15T08:59:18.174Z,399
2022-10-15T09:00:09.908Z,393
2022-10-15T09:01:01.634Z,402
2022-10-15T09:01:53.415Z,391
2022-10-15T09:02:45.167Z,371
2022-10-15T09:03:36.888Z,361
2022-10-15T09:04:28.652Z,376
2022-10-15T09:05:20.282Z,367
2022-10-15T09:06:12.151Z,384
2022-10-15T09:07:03.880Z,416
2022-10-15T09:07:55.644Z,401
2022-10-15T09:08:47.382Z,408
2022-10-15T09:09:39.145Z,387
2022-10-15T09:10:30.785Z,381
2022-10-15T09:11:22.640Z,391
2022-10-15T09:12:14.377Z,385
2022-10-15T09:13:06.143Z,368
2022-10-15T09:13:57.897Z,378
2022-10-15T09:14:49.633Z,364
2022-10-15T09:15:41.378Z,353
2022-10-15T09:16:33.136Z,353
2022-10-15T09:17:25.086Z,347
2022-10-15T09:18:16.655Z,347
2022-10-15T09:19:08.401Z,358
2022-10-15T09:20:00.101Z,359
2022-10-15T09:20:51.894Z,367
2022-10-15T09:21:43.687Z,351
2022-10-15T09:22:35.414Z,357
2022-10-15T09:23:27.194Z,376
2022-10-15T09:24:18.914Z,386
2022-10-15T09:25:10.647Z,407
2022-10-15T09:26:02.412Z,426
2022-10-15T09:26:54.178Z,398
2022-10-15T09:27:45.912Z,404
2022-10-15T09:28:37.716Z,423
2022-10-15T09:29:29.413Z,430
2022-10-15T09:30:21.235Z,403
2022-10-15T09:31:12.892Z,395
2022-10-15T09:32:04.642Z,384
2022-10-15T09:32:56.381Z,360
2022-10-15T09:33:48.119Z,360
2022-10-15T09:34:39.859Z,359
2022-10-15T09:35:31.612Z,340
2022-10-15T09:36:23.331Z,337
2022-10-15T09:37:15.082Z,352
2022-10-15T09:38:06.793Z,311
2022-10-15T09:38:58.551Z,302
2022-10-15T09:39:50.170Z,290
2022-10-15T09:40:42.000Z,300
2022-10-15T09:41:33.702Z,294
2022-10-15T09:42:25.781Z,315
2022-10-15T09:43:17.161Z,334
2022-10-15T09:44:08.901Z,332
2022-10-15T09:45:00.548Z,331
2022-10-15T09:45:52.359Z,314
2022-10-15T09:46:44.055Z,292
2022-10-15T09:47:35.813Z,291
2022-10-15T09:48:27.526Z,310
2022-10-15T09:49:19.251Z,319
2022-10-15T09:50:10.974Z,326
2022-10-15T09:51:02.676Z,341
2022-10-15T09:51:54.379Z,334
2022-10-15T09:52:46.117Z,341
2022-10-15T09:53:37.861Z,343
2022-10-15T09:54:29.585Z,365
2022-10-15T09:55:21.275Z,369
2022-10-15T09:56:13.023Z,326
2022-10-15T09:57:04.735Z,327
2022-10-15T09:57:56.464Z,320
2022-10-15T09:58:48.185Z,317
2022-10-15T09:59:39.918Z,333
2022-10-15T10:00:31.642Z,329
2022-10-15T10:01:23.375Z,291
2022-10-15T10:02:15.229Z,323
2022-10-15T10:03:06.837Z,327
2022-10-15T10:03:58.541Z,337
2022-10-15T10:04:50.207Z,324
2022-10-15T10:05:42.015Z,339
2022-10-15T10:06:33.756Z,342
2022-10-15T10:07:25.460Z,357
2022-10-15T10:08:17.225Z,362
2022-10-15T10:09:09.025Z,352
2022-10-15T10:10:00.588Z,355
2022-10-15T10:10:52.393Z,333
2022-10-15T10:11:44.146Z,352
2022-10-15T10:12:35.859Z,333
2022-10-15T10:13:27.590Z,336
2022-10-15T10:14:19.310Z,353
2022-10-15T10:15:11.060Z,376
2022-10-15T10:16:02.800Z,344
2022-10-15T10:16:54.541Z,334
2022-10-15T10:17:46.318Z,349
2022-10-15T10:18:38.012Z,328
2022-10-15T10:19:29.717Z,344
2022-10-15T10:20:21.461Z,351
2022-10-15T10:21:13.204Z,329
2022-10-15T10:22:04.923Z,343
2022-10-15T10:22:56.670Z,330
2022-10-15T10:23:48.408Z,343
2022-10-15T10:24:40.158Z,353
2022-10-15T10:25:31.901Z,341
2022-10-15T10:26:23.621Z,356
2022-10-15T10:27:15.368Z,358
2022-10-15T10:28:07.084Z,366
2022-10-15T10:29:09.822Z,377
2022-10-15T10:29:50.516Z,365
2022-10-15T10:30:42.317Z,344
2022-10-15T10:31:34.025Z,313
2022-10-15T10:32:25.795Z,335
2022-10-15T10:33:17.493Z,305
2022-10-15T10:34:09.246Z,332
2022-10-15T10:35:00.965Z,323
2022-10-15T10:35:52.724Z,327
2022-10-15T10:36:44.452Z,316
2022-10-15T10:37:36.183Z,324
2022-10-15T10:38:27.915Z,312
2022-10-15T10:39:19.652Z,327
2022-10-15T10:40:11.385Z,320
2022-10-15T10:41:03.127Z,319
2022-10-15T10:41:54.851Z,326
2022-10-15T10:42:46.615Z,305
2022-10-15T10:43:39.579Z,295
2022-10-15T10:44:30.081Z,310
2022-10-15T10:45:21.857Z,322
2022-10-15T10:46:13.546Z,311
2022-10-15T10:47:05.265Z,318
2022-10-15T10:47:57.017Z,315
2022-10-15T10:48:48.740Z,320
2022-10-15T10:49:40.415Z,324
2022-10-15T10:50:32.202Z,321
2022-10-15T10:51:23.960Z,333
2022-10-15T10:52:15.678Z,332
2022-10-15T10:53:07.421Z,332
2022-10-15T10:53:59.156Z,331
2022-10-15T10:54:50.889Z,327
2022-10-15T10:55:42.616Z,335
2022-10-15T10:56:34.346Z,337
2022-10-15T10:57:26.379Z,341
2022-10-15T10:58:17.833Z,345
2022-10-15T10:59:09.554Z,361
2022-10-15T11:00:01.330Z,368
2022-10-15T11:00:53.100Z,352
2022-10-15T11:01:44.782Z,344
2022-10-15T11:02:36.517Z,333
2022-10-15T11:03:28.272Z,339
2022-10-15T11:04:20.003Z,340
2022-10-15T11:05:11.749Z,355
2022-10-15T11:06:03.477Z,341
2022-10-15T11:06:55.237Z,322
2022-10-15T11:07:46.960Z,348
2022-10-15T11:08:38.725Z,349
2022-10-15T11:09:30.338Z,318
2022-10-15T11:10:22.191Z,337
2022-10-15T11:11:13.896Z,321
2022-10-15T11:12:05.658Z,345
2022-10-15T11:12:57.442Z,342
2022-10-15T11:13:49.123Z,331
2022-10-15T11:14:40.793Z,328
2022-10-15T11:15:32.599Z,345
2022-10-15T11:16:24.338Z,328
2022-10-15T11:17:16.077Z,316
2022-10-15T11:18:07.804Z,327
2022-10-15T11:18:59.552Z,325
2022-10-15T11:20:12.199Z,342
2022-10-15T11:20:54.934Z,329
2022-10-15T11:21:34.753Z,318
2022-10-15T11:22:26.487Z,305
2022-10-15T11:23:18.235Z,306
2022-10-15T11:24:09.965Z,297
2022-10-15T11:25:07.424Z,302
2022-10-15T11:25:53.424Z,308
2022-10-15T11:26:59.187Z,313
2022-10-15T11:27:36.925Z,330
2022-10-15T11:28:28.692Z,318
2022-10-15T11:29:20.316Z,325
2022-10-15T11:30:12.086Z,317
2022-10-15T11:31:03.863Z,315
2022-10-15T11:33:06.063Z,309
2022-10-15T11:33:39.030Z,319
2022-10-15T11:34:30.699Z,310
2022-10-15T11:35:40.899Z,297
2022-10-15T11:36:14.252Z,310
2022-10-15T11:37:05.972Z,317
2022-10-15T11:37:57.709Z,303
2022-10-15T11:38:49.437Z,301
2022-10-15T11:39:41.181Z,288
2022-10-15T11:40:32.891Z,303
2022-10-15T11:41:24.655Z,311
2022-10-15T11:42:16.360Z,306
2022-10-15T11:43:08.121Z,306
2022-10-15T11:43:59.836Z,324
2022-10-15T11:44:51.588Z,330
2022-10-15T11:45:43.298Z,319